Time;durP1;ratioP1;P1;durP2;ratioP2;P2;SDS_P1;SDS_P2;PMS_P1;PMS_P2;Temp;Humidity;BMP_temperature;BMP_pressure;BME280_temperature;BME280_humidity;BME280_pressure;Samples;Min_cycle;Max_cycle;Signal;HPM_P1;HPM_P2
2024/01/24 00:01:56;;;;;;;29.63;16.73;;;4.10;99.90;;;;;;6186493;23;20009;-66
2024/01/24 00:04:22;;;;;;;26.37;15.07;;;4.10;99.90;;;;;;6186719;23;20005;-66
2024/01/24 00:06:49;;;;;;;24.37;13.97;;;4.10;99.90;;;;;;6186398;23;20028;-66
2024/01/24 00:09:14;;;;;;;29.10;16.57;;;4.20;99.90;;;;;;6186428;23;20001;-66
2024/01/24 00:11:40;;;;;;;30.17;17.83;;;4.20;99.90;;;;;;6186457;23;20063;-66
2024/01/24 00:14:06;;;;;;;28.93;16.87;;;4.30;99.90;;;;;;6185122;23;20052;-66
2024/01/24 00:16:32;;;;;;;27.37;16.80;;;4.30;99.90;;;;;;6186142;23;20047;-66
2024/01/24 00:18:58;;;;;;;30.50;18.03;;;4.20;99.90;;;;;;6186028;23;20005;-67
2024/01/24 00:21:23;;;;;;;33.17;20.33;;;4.30;99.90;;;;;;6186304;23;20002;-65
2024/01/24 00:23:49;;;;;;;33.23;20.27;;;4.20;99.90;;;;;;6186156;23;20004;-66
2024/01/24 00:26:15;;;;;;;35.20;20.10;;;4.20;99.90;;;;;;6186549;23;20087;-67
2024/01/24 00:28:41;;;;;;;34.17;20.23;;;4.20;99.90;;;;;;6186434;23;20009;-66
2024/01/24 00:31:06;;;;;;;33.10;20.77;;;4.10;99.90;;;;;;6186385;23;20008;-65
2024/01/24 00:33:33;;;;;;;38.77;22.03;;;4.10;99.90;;;;;;6160027;23;20041;-66
2024/01/24 00:35:58;;;;;;;39.83;23.87;;;4.10;99.90;;;;;;6159732;23;20343;-65
2024/01/24 00:38:25;;;;;;;41.07;24.27;;;4.10;99.90;;;;;;6185803;23;20009;-67
2024/01/24 00:40:51;;;;;;;36.90;22.23;;;4.00;99.90;;;;;;6185921;23;20093;-66
2024/01/24 00:43:16;;;;;;;37.13;22.80;;;4.00;99.90;;;;;;6186399;23;20001;-67
2024/01/24 00:45:42;;;;;;;35.40;19.77;;;3.90;99.90;;;;;;6187173;23;20001;-69
2024/01/24 00:48:08;;;;;;;33.90;18.73;;;3.80;99.90;;;;;;6186935;23;20009;-65
2024/01/24 00:50:34;;;;;;;26.40;15.97;;;3.80;99.90;;;;;;6160682;23;20039;-66
2024/01/24 00:53:06;;;;;;;22.00;14.70;;;3.80;99.90;;;;;;6187062;23;20367;-66
2024/01/24 00:55:50;;;;;;;25.27;14.33;;;3.80;99.90;;;;;;6186469;23;19998;-67
2024/01/24 01:16:15;;;;;;;33.03;17.87;;;3.80;99.90;;;;;;5917212;24;20069;-66
2024/01/24 01:19:47;;;;;;;26.97;15.77;;;3.80;99.90;;;;;;5925268;24;20021;-66
2024/01/24 01:22:16;;;;;;;29.00;15.43;;;3.80;99.90;;;;;;5887682;24;20014;-66
2024/01/24 01:24:42;;;;;;;24.47;14.20;;;3.80;99.90;;;;;;5883767;24;20401;-66
2024/01/24 01:27:08;;;;;;;26.53;15.50;;;3.80;99.90;;;;;;6071876;23;20341;-67
2024/01/24 01:29:34;;;;;;;25.20;15.00;;;3.80;99.90;;;;;;6128773;23;20002;-68
2024/01/24 01:32:00;;;;;;;25.80;15.13;;;3.80;99.90;;;;;;6185800;23;20040;-66
2024/01/24 01:34:26;;;;;;;24.60;15.13;;;3.90;99.90;;;;;;6185962;23;20328;-66
2024/01/24 01:36:52;;;;;;;24.97;15.90;;;3.80;99.90;;;;;;6186041;23;20012;-66
2024/01/24 01:39:18;;;;;;;25.43;14.93;;;3.80;99.90;;;;;;6185772;23;20005;-71
2024/01/24 01:41:48;;;;;;;26.90;15.70;;;3.80;99.90;;;;;;6185794;23;20001;-67
2024/01/24 01:44:15;;;;;;;23.03;15.07;;;3.90;99.90;;;;;;6185575;23;20009;-66
2024/01/24 01:46:42;;;;;;;26.33;16.00;;;3.90;99.90;;;;;;6185730;23;20420;-66
2024/01/24 01:49:08;;;;;;;24.03;15.33;;;3.90;99.90;;;;;;6185815;23;20016;-66
2024/01/24 01:51:34;;;;;;;26.27;15.17;;;3.80;99.90;;;;;;6185498;23;20428;-65
2024/01/24 01:54:00;;;;;;;26.67;15.30;;;3.80;99.90;;;;;;6185540;23;20020;-66
2024/01/24 01:56:27;;;;;;;31.40;17.37;;;3.70;99.90;;;;;;6185224;23;20076;-66
2024/01/24 01:58:52;;;;;;;29.20;17.97;;;3.70;99.90;;;;;;6182416;23;20488;-66
2024/01/24 02:01:19;;;;;;;28.50;15.83;;;3.70;99.90;;;;;;6181840;23;20025;-67
2024/01/24 02:03:48;;;;;;;31.13;16.50;;;3.60;99.90;;;;;;6182229;23;20111;-65
2024/01/24 02:06:14;;;;;;;35.27;18.30;;;3.60;99.90;;;;;;6185398;23;20431;-66
2024/01/24 02:08:40;;;;;;;33.90;18.43;;;3.60;99.90;;;;;;6185095;23;20024;-66
2024/01/24 02:11:06;;;;;;;31.40;19.47;;;3.50;99.90;;;;;;6185018;23;20013;-66
2024/01/24 02:13:32;;;;;;;36.07;20.50;;;3.50;99.90;;;;;;6184766;23;19997;-66
2024/01/24 02:15:59;;;;;;;35.10;19.43;;;3.50;99.90;;;;;;6185345;23;20015;-66
2024/01/24 02:18:25;;;;;;;34.40;20.00;;;3.50;99.90;;;;;;6185098;23;20527;-66
2024/01/24 02:20:51;;;;;;;35.37;20.10;;;3.40;99.90;;;;;;6184518;23;20024;-66
2024/01/24 02:23:23;;;;;;;32.93;19.07;;;3.40;99.90;;;;;;6184903;23;20001;-66
2024/01/24 02:25:50;;;;;;;34.73;18.87;;;3.50;99.90;;;;;;6185189;23;20012;-66
2024/01/24 02:28:16;;;;;;;32.57;19.03;;;3.40;99.90;;;;;;6185572;23;20088;-66
2024/01/24 02:30:42;;;;;;;28.77;18.13;;;3.40;99.90;;;;;;6185647;23;20427;-67
2024/01/24 02:33:08;;;;;;;30.67;17.63;;;3.40;99.90;;;;;;6185759;23;20079;-65
2024/01/24 02:35:34;;;;;;;31.80;16.90;;;3.40;99.90;;;;;;6185065;23;20076;-65
2024/01/24 02:46:09;;;;;;;23.80;14.97;;;3.30;99.90;;;;;;5923759;24;20079;-66
2024/01/24 03:04:54;;;;;;;25.58;15.48;;;3.30;99.90;;;;;;5898785;24;20070;-67
2024/01/24 03:07:20;;;;;;;30.50;16.53;;;3.20;99.90;;;;;;5997443;23;20004;-66
2024/01/24 03:09:46;;;;;;;25.73;15.70;;;3.20;99.90;;;;;;6068628;23;20014;-66
2024/01/24 03:12:12;;;;;;;25.10;15.20;;;3.20;99.90;;;;;;6184875;23;20278;-67
2024/01/24 03:14:38;;;;;;;27.20;15.47;;;3.10;99.90;;;;;;6185058;23;20059;-66
2024/01/24 03:17:04;;;;;;;28.73;15.33;;;3.10;99.90;;;;;;6184545;23;20017;-65
2024/01/24 03:19:29;;;;;;;25.17;15.53;;;3.10;99.90;;;;;;6185157;23;20005;-66
2024/01/24 03:21:55;;;;;;;30.83;15.47;;;3.20;99.90;;;;;;6158521;23;20012;-67
2024/01/24 03:24:21;;;;;;;29.50;15.10;;;3.20;99.90;;;;;;6184747;23;20081;-65
2024/01/24 03:26:47;;;;;;;25.13;15.33;;;3.20;99.90;;;;;;6184511;23;20001;-66
2024/01/24 03:29:13;;;;;;;24.50;14.83;;;3.20;99.90;;;;;;6184752;23;20001;-66
2024/01/24 03:31:43;;;;;;;28.77;15.57;;;3.20;99.90;;;;;;6184688;23;20005;-67
2024/01/24 03:34:10;;;;;;;25.33;15.57;;;3.20;99.90;;;;;;6184179;23;20052;-66
2024/01/24 03:36:36;;;;;;;26.43;15.00;;;3.20;99.90;;;;;;6184277;23;20730;-66
2024/01/24 03:39:03;;;;;;;24.30;14.13;;;3.10;99.90;;;;;;6184319;23;20005;-66
2024/01/24 03:41:29;;;;;;;23.97;14.33;;;3.10;99.90;;;;;;6184278;23;20079;-67
2024/01/24 03:43:55;;;;;;;24.43;14.60;;;3.10;99.90;;;;;;6184266;23;20036;-66
2024/01/24 03:46:21;;;;;;;20.73;13.17;;;3.10;99.90;;;;;;6184606;23;20008;-65
2024/01/24 03:48:47;;;;;;;23.23;13.43;;;3.10;99.90;;;;;;6184427;23;20005;-66
2024/01/24 03:51:13;;;;;;;21.70;12.97;;;3.10;99.90;;;;;;6184824;23;19997;-66
2024/01/24 03:53:39;;;;;;;23.77;14.53;;;3.10;99.90;;;;;;6184431;23;20064;-66
2024/01/24 03:56:06;;;;;;;29.17;15.13;;;3.10;99.90;;;;;;6184402;23;19998;-66
2024/01/24 03:58:32;;;;;;;21.57;13.60;;;3.10;99.90;;;;;;6184008;23;20013;-67
2024/01/24 04:00:58;;;;;;;22.77;13.20;;;3.10;99.90;;;;;;6184699;23;20072;-65
2024/01/24 04:03:24;;;;;;;21.90;13.70;;;3.00;99.90;;;;;;6184360;23;20001;-66
2024/01/24 04:05:50;;;;;;;28.60;13.97;;;3.00;99.90;;;;;;6184532;23;20412;-68
2024/01/24 04:08:16;;;;;;;24.67;14.47;;;3.00;99.90;;;;;;6185378;23;20012;-66
2024/01/24 04:10:42;;;;;;;22.40;13.93;;;3.00;99.90;;;;;;6214636;23;20009;-65
2024/01/24 04:13:08;;;;;;;16.47;9.57;;;2.90;99.90;;;;;;6215380;23;20000;-66
2024/01/24 04:15:34;;;;;;;15.23;9.27;;;2.90;99.90;;;;;;6215340;23;20008;-66
2024/01/24 04:18:00;;;;;;;18.93;9.47;;;2.80;99.90;;;;;;6215384;23;20016;-69
2024/01/24 04:27:49;;;;;;;14.77;9.43;;;2.60;99.90;;;;;;6123741;23;20503;-66
2024/01/24 04:40:43;;;;;;;15.10;8.47;;;2.60;99.90;;;;;;6036231;23;20370;-67
2024/01/24 04:46:44;;;;;;;12.17;7.03;;;2.70;99.90;;;;;;6065164;23;20021;-70
2024/01/24 04:49:11;;;;;;;12.03;6.50;;;2.80;99.90;;;;;;6065880;23;20007;-66
2024/01/24 04:51:37;;;;;;;9.07;4.80;;;2.80;99.90;;;;;;6206183;23;20004;-66
2024/01/24 04:54:04;;;;;;;12.17;6.50;;;2.90;99.90;;;;;;6216126;23;20430;-66
2024/01/24 04:56:30;;;;;;;12.03;6.13;;;3.00;99.90;;;;;;6215842;23;19996;-66
2024/01/24 04:58:56;;;;;;;13.53;6.87;;;3.00;99.90;;;;;;6216029;23;20009;-66
2024/01/24 05:01:21;;;;;;;13.43;8.07;;;3.10;99.90;;;;;;6215939;23;20036;-70
2024/01/24 05:03:48;;;;;;;16.00;8.70;;;3.10;99.90;;;;;;6216194;23;20005;-67
2024/01/24 05:06:13;;;;;;;23.23;10.80;;;3.10;99.90;;;;;;6216218;23;20017;-66
2024/01/24 05:08:40;;;;;;;21.30;11.70;;;3.00;99.90;;;;;;6215864;23;20003;-66
2024/01/24 05:11:06;;;;;;;18.17;10.90;;;3.00;99.90;;;;;;6215694;23;20459;-66
2024/01/24 05:13:31;;;;;;;18.63;11.50;;;2.90;99.90;;;;;;6215792;23;19996;-66
2024/01/24 05:15:58;;;;;;;18.83;11.10;;;2.90;99.90;;;;;;6215728;23;20031;-69
2024/01/24 05:18:24;;;;;;;18.63;11.03;;;2.90;99.90;;;;;;6215654;23;20017;-66
2024/01/24 05:20:49;;;;;;;18.33;11.10;;;2.90;99.90;;;;;;6215684;23;20127;-71
2024/01/24 05:23:15;;;;;;;24.13;12.50;;;2.90;99.90;;;;;;6215447;23;20007;-66
2024/01/24 05:25:42;;;;;;;22.43;12.57;;;2.80;99.90;;;;;;6215966;23;20023;-66
2024/01/24 05:28:10;;;;;;;22.33;12.53;;;2.80;99.90;;;;;;6215446;23;20023;-66
2024/01/24 05:30:35;;;;;;;20.43;11.67;;;2.80;99.90;;;;;;6215874;23;19997;-66
2024/01/24 05:33:01;;;;;;;23.97;13.13;;;2.80;99.90;;;;;;6215830;23;20051;-66
2024/01/24 05:35:27;;;;;;;20.30;12.50;;;2.80;99.90;;;;;;6215963;23;20001;-67
2024/01/24 05:37:53;;;;;;;22.97;12.80;;;2.80;99.90;;;;;;6215696;23;20008;-66
2024/01/24 05:40:19;;;;;;;23.00;12.10;;;2.80;99.90;;;;;;6215707;23;20005;-66
2024/01/24 05:42:44;;;;;;;23.50;12.47;;;2.80;99.90;;;;;;6215694;23;20020;-66
2024/01/24 05:45:11;;;;;;;20.87;11.90;;;2.80;99.90;;;;;;6215617;23;20001;-67
2024/01/24 05:47:38;;;;;;;20.63;12.50;;;2.80;99.90;;;;;;6215141;23;20011;-72
2024/01/24 05:50:05;;;;;;;17.40;11.83;;;2.80;99.90;;;;;;6214978;23;20005;-67
2024/01/24 05:52:30;;;;;;;27.37;12.90;;;2.80;99.90;;;;;;6216131;23;20000;-66
2024/01/24 05:54:56;;;;;;;26.27;13.90;;;2.80;99.90;;;;;;6216045;23;20480;-66
2024/01/24 05:57:22;;;;;;;25.47;13.57;;;2.70;99.90;;;;;;6215858;23;20017;-66
2024/01/24 05:59:49;;;;;;;24.50;14.23;;;2.70;99.90;;;;;;6216376;23;20036;-66
2024/01/24 06:05:25;;;;;;;18.43;12.07;;;2.70;99.90;;;;;;6183878;23;20021;-66
2024/01/24 06:07:52;;;;;;;27.73;13.33;;;2.60;99.90;;;;;;6184822;23;20001;-66
2024/01/24 06:10:18;;;;;;;27.70;15.47;;;2.60;99.90;;;;;;6185060;23;20012;-66
2024/01/24 06:12:44;;;;;;;28.30;15.87;;;2.60;99.90;;;;;;6185495;23;20028;-67
2024/01/24 06:15:10;;;;;;;46.07;21.20;;;2.70;99.90;;;;;;6185542;23;20028;-68
2024/01/24 06:17:36;;;;;;;33.37;16.43;;;2.70;99.90;;;;;;6183860;23;20020;-66
2024/01/24 06:20:01;;;;;;;31.50;22.47;;;2.70;99.90;;;;;;6185133;23;20004;-66
2024/01/24 06:22:27;;;;;;;26.10;14.40;;;2.80;99.90;;;;;;6184413;23;20005;-66
2024/01/24 06:24:55;;;;;;;25.03;12.70;;;2.80;99.90;;;;;;6184898;23;20005;-68
2024/01/24 06:27:21;;;;;;;26.33;12.87;;;2.80;99.90;;;;;;6159415;23;20005;-67
2024/01/24 06:29:46;;;;;;;22.30;12.40;;;2.90;99.90;;;;;;6185911;23;20300;-67
2024/01/24 06:32:12;;;;;;;23.30;12.30;;;2.90;99.90;;;;;;6185457;23;19997;-65
2024/01/24 06:34:38;;;;;;;24.87;11.83;;;3.00;99.90;;;;;;6185782;23;20062;-66
2024/01/24 06:38:15;;;;;;;25.83;12.80;;;3.00;99.90;;;;;;6185167;23;20604;-64
2024/01/24 06:47:54;;;;;;;22.83;11.37;;;3.10;99.90;;;;;;6185686;23;20339;-65
2024/01/24 06:54:13;;;;;;;20.03;10.57;;;3.10;99.90;;;;;;6185324;23;20020;-66
2024/01/24 06:56:39;;;;;;;19.30;11.27;;;3.10;99.90;;;;;;6157102;23;20009;-65
2024/01/24 07:02:14;;;;;;;22.40;12.07;;;3.00;99.90;;;;;;6064918;23;20034;-65
2024/01/24 07:04:40;;;;;;;26.03;11.87;;;3.00;99.90;;;;;;6167703;23;20024;-66
2024/01/24 07:07:06;;;;;;;20.50;11.73;;;3.10;99.90;;;;;;6184517;23;20001;-66
2024/01/24 07:09:32;;;;;;;24.40;12.63;;;3.10;99.90;;;;;;6184114;23;20005;-66
2024/01/24 07:11:58;;;;;;;21.03;12.07;;;3.00;99.90;;;;;;6185031;23;20005;-65
2024/01/24 07:14:24;;;;;;;28.67;14.93;;;3.00;99.90;;;;;;6184593;23;20005;-66
2024/01/24 07:16:50;;;;;;;30.77;14.90;;;3.00;99.90;;;;;;6184262;23;20100;-65
2024/01/24 07:19:16;;;;;;;33.00;15.23;;;3.00;99.90;;;;;;6157887;23;20033;-66
2024/01/24 07:21:42;;;;;;;33.23;14.80;;;3.00;99.90;;;;;;6183994;23;20352;-66
2024/01/24 07:24:08;;;;;;;28.30;14.20;;;2.90;99.90;;;;;;6157847;23;20008;-65
2024/01/24 07:26:34;;;;;;;34.73;15.00;;;3.00;99.90;;;;;;6185010;23;20421;-66
2024/01/24 07:29:00;;;;;;;28.87;12.27;;;3.00;99.90;;;;;;6184101;23;20080;-65
2024/01/24 07:31:25;;;;;;;20.20;10.77;;;3.00;99.90;;;;;;6184761;23;20005;-65
2024/01/24 07:33:51;;;;;;;21.10;11.07;;;3.10;99.90;;;;;;6184844;23;20036;-65
2024/01/24 07:36:20;;;;;;;22.40;12.00;;;3.10;99.90;;;;;;6184473;23;20097;-66
2024/01/24 07:38:47;;;;;;;18.33;9.93;;;;;;;;;;6184809;23;20093;-67
2024/01/24 07:41:13;;;;;;;17.77;10.40;;;3.30;99.90;;;;;;6184108;23;20024;-68
2024/01/24 07:43:41;;;;;;;18.30;10.13;;;3.30;99.90;;;;;;6183791;23;20128;-66
2024/01/24 07:46:07;;;;;;;19.67;10.03;;;3.40;99.90;;;;;;6184532;23;20084;-67
2024/01/24 07:48:33;;;;;;;15.80;10.17;;;3.30;99.90;;;;;;6184148;23;20047;-66
2024/01/24 07:50:58;;;;;;;19.50;10.77;;;3.40;99.90;;;;;;6184471;23;20001;-66
2024/01/24 07:53:24;;;;;;;27.47;13.37;;;3.50;99.90;;;;;;6184300;23;20008;-66
2024/01/24 07:55:50;;;;;;;25.60;13.97;;;3.50;99.90;;;;;;6184885;23;20001;-67
2024/01/24 07:58:16;;;;;;;28.67;13.93;;;3.50;99.90;;;;;;6184348;23;20339;-66
2024/01/24 08:00:42;;;;;;;31.07;12.80;;;3.60;99.90;;;;;;6184209;23;20001;-67
2024/01/24 08:03:08;;;;;;;20.40;11.77;;;3.60;99.90;;;;;;6183749;23;20048;-69
2024/01/24 08:05:34;;;;;;;21.37;12.43;;;3.60;99.90;;;;;;6185307;23;20008;-72
2024/01/24 08:08:01;;;;;;;25.90;12.40;;;3.70;99.90;;;;;;6184578;23;20001;-73
2024/01/24 08:10:27;;;;;;;26.80;12.07;;;3.70;99.90;;;;;;6185621;23;20071;-73
2024/01/24 08:12:54;;;;;;;23.43;12.10;;;3.70;99.90;;;;;;6184875;23;20005;-73
2024/01/24 08:42:44;;;;;;;33.67;13.40;;;4.20;99.90;;;;;;6066478;23;20493;-74
2024/01/24 08:45:10;;;;;;;34.20;13.70;;;4.30;99.90;;;;;;6070691;23;20397;-75
2024/01/24 08:47:36;;;;;;;23.40;13.23;;;4.30;99.90;;;;;;6094919;23;20054;-75
2024/01/24 08:50:04;;;;;;;23.30;12.93;;;4.30;99.90;;;;;;6178531;23;20136;-80
2024/01/24 08:52:31;;;;;;;24.50;12.93;;;4.40;99.90;;;;;;6186162;23;20092;-78
2024/01/24 08:54:58;;;;;;;20.67;12.10;;;4.40;99.90;;;;;;6186367;23;20017;-79
2024/01/24 08:57:24;;;;;;;20.17;12.10;;;4.40;99.90;;;;;;6186603;23;20016;-67
2024/01/24 08:59:51;;;;;;;24.30;12.67;;;4.50;99.90;;;;;;6159642;23;20012;-67
2024/01/24 09:02:17;;;;;;;24.40;13.50;;;4.40;99.90;;;;;;6186054;23;20001;-66
2024/01/24 09:04:45;;;;;;;20.67;12.83;;;4.50;99.90;;;;;;6185248;23;20021;-67
2024/01/24 09:07:11;;;;;;;24.30;14.00;;;4.50;99.90;;;;;;6185840;23;20377;-66
2024/01/24 09:09:37;;;;;;;25.00;14.10;;;4.50;99.90;;;;;;6185660;23;20008;-68
2024/01/24 09:12:03;;;;;;;33.60;14.20;;;4.60;99.90;;;;;;6186087;23;20072;-67
2024/01/24 09:14:28;;;;;;;35.10;13.57;;;4.60;99.90;;;;;;6186283;23;20061;-67
2024/01/24 09:16:54;;;;;;;22.87;13.53;;;4.60;99.90;;;;;;6185882;23;20019;-71
2024/01/24 09:19:21;;;;;;;25.37;13.90;;;4.60;99.90;;;;;;6186421;23;20080;-67
2024/01/24 09:21:47;;;;;;;26.03;13.90;;;4.70;99.90;;;;;;6186133;23;20466;-69
2024/01/24 09:24:13;;;;;;;26.23;14.40;;;4.70;99.90;;;;;;6186185;23;19997;-68
2024/01/24 09:26:39;;;;;;;22.30;13.93;;;4.80;99.90;;;;;;6186400;23;20005;-67
2024/01/24 09:29:05;;;;;;;25.60;13.53;;;4.80;99.90;;;;;;6186454;23;20012;-67
2024/01/24 09:31:31;;;;;;;26.23;13.97;;;4.90;99.90;;;;;;6184959;23;20029;-67
2024/01/24 09:33:56;;;;;;;24.70;14.07;;;4.90;99.90;;;;;;6185868;23;20336;-67
2024/01/24 09:36:27;;;;;;;29.80;14.57;;;4.90;99.90;;;;;;6186079;23;20005;-67
2024/01/24 09:38:53;;;;;;;33.83;14.57;;;5.00;99.90;;;;;;6185575;23;20020;-67
2024/01/24 09:41:19;;;;;;;25.43;14.63;;;5.00;99.90;;;;;;6185677;23;20377;-67
2024/01/24 09:43:47;;;;;;;25.83;13.67;;;5.10;99.90;;;;;;6186239;23;20110;-67
2024/01/24 09:46:18;;;;;;;23.70;14.97;;;5.20;99.90;;;;;;6185599;23;20032;-71
2024/01/24 09:48:46;;;;;;;29.67;14.60;;;5.20;99.90;;;;;;6186472;23;20396;-67
2024/01/24 09:51:13;;;;;;;29.40;15.70;;;5.20;99.90;;;;;;6186409;23;20009;-67
2024/01/24 09:53:43;;;;;;;37.57;17.47;;;5.20;99.90;;;;;;6185194;23;20012;-67
2024/01/24 09:56:10;;;;;;;29.20;14.87;;;5.30;99.90;;;;;;6185949;23;20067;-67
2024/01/24 10:17:52;;;;;;;26.33;15.20;;;5.50;99.90;;;;;;5953270;24;20019;-67
2024/01/24 10:23:16;;;;;;;25.50;16.50;;;5.50;99.90;;;;;;5976077;24;20049;-71
2024/01/24 10:25:42;;;;;;;33.27;17.20;;;5.60;99.90;;;;;;5978161;24;20426;-71
2024/01/24 10:28:13;;;;;;;29.43;17.90;;;5.60;99.90;;;;;;5980770;24;20012;-70
2024/01/24 10:30:42;;;;;;;31.63;16.90;;;5.60;99.90;;;;;;6106760;23;20005;-71
2024/01/24 10:33:12;;;;;;;26.17;16.03;;;5.70;99.90;;;;;;6185278;23;20001;-71
2024/01/24 10:35:38;;;;;;;22.77;15.20;;;5.80;99.90;;;;;;6185599;23;20072;-71
2024/01/24 10:38:05;;;;;;;27.80;16.43;;;;;;;;;;6185420;23;20347;-72
2024/01/24 10:40:31;;;;;;;24.37;15.33;;;6.00;99.90;;;;;;6185093;23;20001;-71
2024/01/24 10:43:07;;;;;;;25.27;14.37;;;6.10;99.90;;;;;;6185287;23;20313;-71
2024/01/24 10:45:34;;;;;;;37.43;21.13;;;6.20;99.90;;;;;;6185132;23;20005;-71
2024/01/24 10:48:01;;;;;;;30.57;16.67;;;6.40;99.90;;;;;;6185250;23;20439;-71
2024/01/24 10:50:27;;;;;;;24.70;12.90;;;6.50;99.90;;;;;;6185285;23;20031;-71
2024/01/24 10:52:54;;;;;;;24.50;13.00;;;6.50;99.90;;;;;;6185194;23;20004;-71
2024/01/24 10:55:21;;;;;;;29.40;12.90;;;6.60;99.90;;;;;;6184774;23;20064;-71
2024/01/24 10:57:48;;;;;;;22.77;12.10;;;6.60;99.90;;;;;;6185256;23;20009;-71
2024/01/24 11:00:17;;;;;;;23.27;14.90;;;6.70;99.90;;;;;;6182138;23;20073;-71
2024/01/24 11:02:43;;;;;;;30.37;16.37;;;6.70;99.90;;;;;;6163499;23;20036;-71
2024/01/24 11:05:33;;;;;;;22.30;15.40;;;6.80;99.90;;;;;;6213523;23;19996;-71
2024/01/24 11:08:02;;;;;;;31.33;16.87;;;6.80;99.90;;;;;;6213855;23;20024;-71
2024/01/24 11:10:35;;;;;;;31.10;16.37;;;6.80;99.90;;;;;;6214796;23;20490;-70
2024/01/24 11:13:05;;;;;;;30.50;16.00;;;6.90;99.90;;;;;;6214435;23;20076;-71
2024/01/24 11:15:32;;;;;;;28.07;16.33;;;7.00;99.90;;;;;;6214521;23;20323;-71
2024/01/24 11:18:24;;;;;;;29.10;16.67;;;7.00;99.90;;;;;;6187307;23;20023;-71
2024/01/24 11:20:54;;;;;;;24.27;16.83;;;7.30;99.90;;;;;;6213889;23;20072;-72
2024/01/24 11:23:44;;;;;;;24.23;16.80;;;7.40;99.90;;;;;;6214997;23;20015;-72
2024/01/24 11:26:32;;;;;;;26.77;17.70;;;7.50;99.90;;;;;;6215147;23;20011;-72
2024/01/24 11:29:32;;;;;;;28.93;18.17;;;7.60;99.90;;;;;;6215469;23;20131;-72
2024/01/24 11:31:58;;;;;;;28.83;18.90;;;7.70;99.90;;;;;;6215658;23;20360;-72
2024/01/24 11:34:27;;;;;;;27.50;19.80;;;7.70;99.90;;;;;;6215329;23;20004;-72
2024/01/24 11:36:53;;;;;;;33.27;21.10;;;;;;;;;;6188543;23;20005;-72
2024/01/24 11:53:06;;;;;;;;;;;;;;;;;;;;;
2024/01/24 11:59:52;;;;;;;25.93;18.67;;;8.20;99.90;;;;;;6216676;23;20462;-72
2024/01/24 12:05:48;;;;;;;30.90;19.85;;;8.20;99.90;;;;;;6147024;23;20471;-72
2024/01/24 12:08:14;;;;;;;29.35;19.73;;;8.20;99.90;;;;;;6154581;23;20503;-72
2024/01/24 12:10:40;;;;;;;31.00;20.53;;;8.20;99.90;;;;;;6204786;23;20012;-72
2024/01/24 12:13:07;;;;;;;32.77;21.97;;;8.30;99.90;;;;;;6217273;23;20271;-72
2024/01/24 12:15:36;;;;;;;27.70;20.43;;;8.30;99.90;;;;;;6217060;23;20072;-72
2024/01/24 12:18:07;;;;;;;30.50;22.67;;;8.40;99.90;;;;;;6216525;23;20382;-72
2024/01/24 12:20:34;;;;;;;38.10;23.30;;;8.40;99.90;;;;;;6216609;23;20379;-73
2024/01/24 12:23:01;;;;;;;35.40;21.70;;;8.40;99.90;;;;;;6216426;23;20374;-72
2024/01/24 12:25:27;;;;;;;34.00;22.20;;;8.40;99.90;;;;;;6217115;23;20308;-72
2024/01/24 12:27:54;;;;;;;33.90;21.83;;;8.40;99.90;;;;;;6217038;23;20004;-72
2024/01/24 12:30:20;;;;;;;34.73;22.67;;;8.40;99.90;;;;;;6216499;23;20322;-72
2024/01/24 12:32:46;;;;;;;37.83;21.37;;;8.30;99.90;;;;;;6216156;23;20033;-72
2024/01/24 12:35:14;;;;;;;33.73;22.27;;;8.30;99.90;;;;;;6216352;23;20004;-72
2024/01/24 12:37:41;;;;;;;35.63;23.27;;;8.30;99.90;;;;;;6216653;23;20431;-72
2024/01/24 12:40:09;;;;;;;33.70;22.97;;;8.30;99.90;;;;;;6216770;23;20005;-72
2024/01/24 12:42:36;;;;;;;38.13;24.53;;;8.30;99.90;;;;;;6216618;23;20075;-72
2024/01/24 12:45:02;;;;;;;34.73;23.60;;;8.30;99.90;;;;;;6216445;23;20008;-70
2024/01/24 12:47:28;;;;;;;38.87;25.20;;;8.40;99.90;;;;;;6216458;23;20004;-72
2024/01/24 12:49:54;;;;;;;36.40;23.87;;;8.40;99.90;;;;;;6216496;23;20024;-72
2024/01/24 12:52:20;;;;;;;34.10;23.73;;;8.40;99.90;;;;;;6216369;23;20071;-72
2024/01/24 12:54:45;;;;;;;33.77;24.33;;;8.50;99.90;;;;;;6216044;23;20000;-72
2024/01/24 12:57:11;;;;;;;34.00;23.73;;;8.50;99.90;;;;;;6216476;23;20122;-72
2024/01/24 12:59:37;;;;;;;35.03;24.60;;;8.60;99.90;;;;;;6216460;23;20014;-72
2024/01/24 13:02:03;;;;;;;34.87;23.47;;;8.70;99.90;;;;;;6216330;23;20001;-72
2024/01/24 13:04:29;;;;;;;32.83;24.70;;;8.80;99.90;;;;;;6216081;23;20123;-72
2024/01/24 13:06:55;;;;;;;35.73;24.70;;;8.80;99.90;;;;;;6215906;23;20016;-72
2024/01/24 13:09:20;;;;;;;39.63;25.73;;;8.80;99.90;;;;;;6216217;23;20001;-72
2024/01/24 13:11:46;;;;;;;34.40;25.57;;;8.80;99.90;;;;;;6216679;23;20007;-72
2024/01/24 13:14:12;;;;;;;36.10;26.00;;;8.80;99.90;;;;;;6217016;23;20370;-72
2024/01/24 13:16:38;;;;;;;35.93;25.53;;;8.90;99.90;;;;;;6216234;23;20008;-72
2024/01/24 13:19:04;;;;;;;34.73;25.77;;;8.90;99.90;;;;;;6216826;23;20015;-72
2024/01/24 13:32:13;;;;;;;36.17;25.93;;;9.10;99.90;;;;;;6154181;23;20092;-72
2024/01/24 13:41:51;;;;;;;36.90;26.77;;;8.90;99.90;;;;;;6008080;23;20015;-72
2024/01/24 13:47:42;;;;;;;39.27;26.33;;;8.90;99.90;;;;;;6012834;23;20079;-72
2024/01/24 13:50:09;;;;;;;40.20;27.73;;;8.90;99.90;;;;;;6037140;23;20343;-72
2024/01/24 13:52:35;;;;;;;33.07;26.27;;;8.80;99.90;;;;;;6091591;23;20010;-72
2024/01/24 13:55:01;;;;;;;35.60;26.87;;;8.80;99.90;;;;;;6213256;23;20454;-72
2024/01/24 13:57:27;;;;;;;38.87;28.37;;;8.90;99.90;;;;;;6215560;23;20059;-72
2024/01/24 13:59:53;;;;;;;40.27;27.07;;;8.90;99.90;;;;;;6215758;23;20426;-72
2024/01/24 14:02:18;;;;;;;37.40;28.07;;;8.90;99.90;;;;;;6215331;23;20028;-72
2024/01/24 14:04:44;;;;;;;43.10;29.07;;;8.90;99.90;;;;;;6215611;23;19996;-72
2024/01/24 14:07:10;;;;;;;42.07;29.47;;;8.90;99.90;;;;;;6215390;23;20027;-72
2024/01/24 14:09:36;;;;;;;40.73;29.03;;;8.90;99.90;;;;;;6215490;23;20323;-72
2024/01/24 14:12:02;;;;;;;45.73;30.17;;;8.90;99.90;;;;;;6215555;23;20004;-72
2024/01/24 14:14:28;;;;;;;41.40;30.53;;;8.90;99.90;;;;;;6215543;23;20023;-72
2024/01/24 14:16:54;;;;;;;42.97;31.13;;;8.90;99.90;;;;;;6215304;23;20419;-73
2024/01/24 14:19:21;;;;;;;44.40;30.50;;;8.90;99.90;;;;;;6211929;23;20009;-72
2024/01/24 14:21:47;;;;;;;42.17;30.17;;;8.90;99.90;;;;;;6212081;23;20427;-71
2024/01/24 14:24:12;;;;;;;39.57;30.33;;;8.90;99.90;;;;;;6212802;23;20001;-70
2024/01/24 14:26:40;;;;;;;45.20;29.67;;;8.90;99.90;;;;;;6210875;23;20032;-70
2024/01/24 14:29:05;;;;;;;37.90;28.30;;;8.90;99.90;;;;;;6211512;23;20007;-71
2024/01/24 14:31:31;;;;;;;38.37;28.33;;;8.90;99.90;;;;;;6213689;23;20247;-72
2024/01/24 14:33:57;;;;;;;43.83;29.17;;;8.90;99.90;;;;;;6214673;23;20007;-72
2024/01/24 14:36:33;;;;;;;41.00;29.57;;;8.90;99.90;;;;;;6214706;23;20005;-72
2024/01/24 14:38:59;;;;;;;41.77;29.43;;;8.90;99.90;;;;;;6214572;23;20009;-73
2024/01/24 14:41:25;;;;;;;41.90;29.67;;;8.90;99.90;;;;;;6214752;23;20043;-73
2024/01/24 14:43:51;;;;;;;42.90;31.23;;;8.90;99.90;;;;;;6214722;23;20435;-70
2024/01/24 14:46:19;;;;;;;37.93;29.50;;;8.90;99.90;;;;;;6214829;23;20004;-73
2024/01/24 14:48:46;;;;;;;41.83;30.60;;;8.90;99.90;;;;;;6215147;23;19997;-72
2024/01/24 14:51:12;;;;;;;45.27;31.27;;;9.00;99.90;;;;;;6215145;23;20028;-73
2024/01/24 14:53:38;;;;;;;41.43;29.37;;;9.00;99.90;;;;;;6188550;23;20011;-72
2024/01/24 14:56:07;;;;;;;42.43;31.43;;;9.00;99.90;;;;;;6215100;23;20050;-72
2024/01/24 14:58:34;;;;;;;49.30;31.77;;;9.10;99.90;;;;;;6214796;23;20047;-72
2024/01/24 15:01:00;;;;;;;44.37;30.13;;;9.10;99.90;;;;;;6215061;23;20051;-72
2024/01/24 15:07:06;;;;;;;44.22;31.13;;;9.10;99.90;;;;;;6091547;23;20648;-72
2024/01/24 15:17:03;;;;;;;42.43;31.80;;;9.00;99.90;;;;;;6062981;23;20050;-71
2024/01/24 15:26:49;;;;;;;48.83;34.37;;;8.90;99.90;;;;;;5950963;24;20388;-71
2024/01/24 15:29:15;;;;;;;42.95;32.78;;;8.90;99.90;;;;;;5952601;24;20335;-72
2024/01/24 15:31:41;;;;;;;51.20;35.67;;;8.90;99.90;;;;;;6055956;23;20333;-72
2024/01/24 15:34:07;;;;;;;51.13;34.97;;;8.90;99.90;;;;;;6159485;23;20039;-71
2024/01/24 15:36:33;;;;;;;50.43;34.67;;;8.90;99.90;;;;;;6212028;23;20090;-73
2024/01/24 15:38:59;;;;;;;48.40;35.00;;;8.90;99.90;;;;;;6213747;23;20013;-73
2024/01/24 15:41:24;;;;;;;48.43;35.17;;;8.80;99.90;;;;;;6215254;23;20380;-73
2024/01/24 15:43:50;;;;;;;49.90;37.57;;;8.80;99.90;;;;;;6188494;23;20343;-73
2024/01/24 15:46:16;;;;;;;47.83;35.43;;;8.80;99.90;;;;;;6214937;23;20396;-73
2024/01/24 15:48:42;;;;;;;50.83;36.40;;;8.80;99.90;;;;;;6214466;23;20005;-73
2024/01/24 15:51:08;;;;;;;52.40;36.77;;;8.80;99.90;;;;;;6214583;23;20020;-73